< < Back
Terminal Aerodrome Forecast


Current Version              Previous Versions:   1  2  3  4  5  6  7  8  9  

Terminal Aerodrome Forecast

355
FTUS44 KOHX 240500
TAFBNA
TAF
KBNA 240525Z 2406/2506 VRB04KT P6SM SKC
     FM241500 19011KT P6SM FEW060 SCT250
     FM250400 18014KT P6SM VCTS BKN050CB=

Latest METAR

432
SAUS70 KWBC 241200 RRH
MTRBNA
METAR KBNA 241153Z 00000KT 10SM BKN200 BKN250 07/04 A2999 RMK AO2 SLP155
T00720044 10111 20050 53004


USA.gov is the U.S. government's official web portal to all federal, state and local government web resources and services.